Time;durP1;ratioP1;P1;durP2;ratioP2;P2;SDS_P1;SDS_P2;PMS_P1;PMS_P2;Temp;Humidity;BMP_temperature;BMP_pressure;BME280_temperature;BME280_humidity;BME280_pressure;Samples;Min_cycle;Max_cycle;Signal;HPM_P1;HPM_P2
2023/05/21 00:02:17;;;;;;;18.77;16.83;;;;;;;;;;5029852;28;20236;-71
2023/05/21 00:04:44;;;;;;;18.10;15.17;;;;;;;;;;5032498;28;20179;-71
2023/05/21 00:07:11;;;;;;;19.07;17.07;;;;;;;;;;5027126;28;20194;-71
2023/05/21 00:09:37;;;;;;;18.07;16.17;;;;;;;;;;5032441;28;20217;-72
2023/05/21 00:12:04;;;;;;;19.93;17.77;;;;;;;;;;5034111;28;20618;-72
2023/05/21 00:14:31;;;;;;;17.90;16.00;;;;;;;;;;5035952;28;20190;-72
2023/05/21 00:16:57;;;;;;;17.10;15.30;;;;;;;;;;5032490;28;20254;-71
2023/05/21 00:19:23;;;;;;;18.27;16.37;;;;;;;;;;5035027;28;20202;-71
2023/05/21 00:21:49;;;;;;;19.77;15.67;;;;;;;;;;5015409;28;20186;-73
2023/05/21 00:24:15;;;;;;;17.97;16.07;;;;;;;;;;5037608;28;20792;-71
2023/05/21 00:26:41;;;;;;;18.37;16.40;;;;;;;;;;5025708;28;20233;-71
2023/05/21 00:29:08;;;;;;;18.43;16.17;;;;;;;;;;5037808;28;20193;-71
2023/05/21 00:31:34;;;;;;;17.83;16.00;;;;;;;;;;5028443;28;20692;-71
2023/05/21 00:34:00;;;;;;;17.93;15.63;;;;;;;;;;5014725;28;20186;-71
2023/05/21 00:36:26;;;;;;;20.97;16.43;;;;;;;;;;5016021;28;20197;-71
2023/05/21 00:38:52;;;;;;;16.67;14.83;;;;;;;;;;5010868;28;20627;-71
2023/05/21 00:41:21;;;;;;;18.03;15.87;;;;;;;;;;5031648;28;20209;-71
2023/05/21 00:43:47;;;;;;;17.83;15.93;;;;;;;;;;5005831;28;20189;-71
2023/05/21 00:46:16;;;;;;;18.83;15.17;;;;;;;;;;5028907;28;20213;-72
2023/05/21 00:48:45;;;;;;;17.40;15.53;;;;;;;;;;5030937;28;20212;-71
2023/05/21 00:51:13;;;;;;;19.17;15.77;;;;;;;;;;5031074;28;20731;-71
2023/05/21 00:53:39;;;;;;;17.23;15.40;;;;;;;;;;5030254;28;20642;-71
2023/05/21 00:56:06;;;;;;;17.73;15.83;;;;;;;;;;4993576;28;20274;-71
2023/05/21 00:58:32;;;;;;;17.40;15.20;;;;;;;;;;5014968;28;20963;-72
2023/05/21 01:01:02;;;;;;;18.87;16.47;;;;;;;;;;5030865;28;20202;-71
2023/05/21 01:03:37;;;;;;;19.57;17.37;;;;;;;;;;5015687;28;20251;-71
2023/05/21 01:06:07;;;;;;;19.07;17.07;;;;;;;;;;5013437;28;20232;-73
2023/05/21 01:08:35;;;;;;;20.77;17.60;;;;;;;;;;5031835;28;20178;-71
2023/05/21 01:11:02;;;;;;;19.33;17.23;;;;;;;;;;5030258;28;20189;-72
2023/05/21 01:13:28;;;;;;;19.03;16.37;;;;;;;;;;5027291;28;20190;-72
2023/05/21 01:15:56;;;;;;;17.13;15.07;;;;;;;;;;5036998;28;20186;-71
2023/05/21 01:18:23;;;;;;;17.23;15.43;;;;;;;;;;5031179;28;20186;-71
2023/05/21 01:20:49;;;;;;;17.63;15.83;;;;;;;;;;5027643;28;20701;-71
2023/05/21 01:23:18;;;;;;;18.30;16.27;;;;;;;;;;5015614;28;20943;-73
2023/05/21 01:25:45;;;;;;;16.90;15.10;;;;;;;;;;5031143;28;20185;-71
2023/05/21 01:28:12;;;;;;;19.23;15.90;;;;;;;;;;5030051;28;20666;-72
2023/05/21 01:30:39;;;;;;;16.83;15.13;;;;;;;;;;5017278;28;20217;-71
2023/05/21 01:33:19;;;;;;;17.10;15.30;;;;;;;;;;5014480;28;20182;-71
2023/05/21 01:36:05;;;;;;;20.23;15.60;;;;;;;;;;5033169;28;20181;-71
2023/05/21 01:38:40;;;;;;;18.30;16.17;;;;;;;;;;5017266;28;20192;-72
2023/05/21 01:41:09;;;;;;;18.53;16.57;;;;;;;;;;5027215;28;20213;-71
2023/05/21 01:43:38;;;;;;;16.97;15.17;;;;;;;;;;5017012;28;20174;-71
2023/05/21 01:46:05;;;;;;;20.00;17.17;;;;;;;;;;5031887;28;20202;-72
2023/05/21 01:48:34;;;;;;;17.37;15.57;;;;;;;;;;5040900;28;20189;-73
2023/05/21 01:51:01;;;;;;;16.87;15.07;;;;;;;;;;5032841;28;20559;-72
2023/05/21 01:53:27;;;;;;;21.07;15.90;;;;;;;;;;5033268;28;20197;-70
2023/05/21 01:55:54;;;;;;;17.77;15.87;;;;;;;;;;5034454;28;20685;-71
2023/05/21 01:58:21;;;;;;;19.23;15.77;;;;;;;;;;5020844;28;20202;-71
2023/05/21 02:00:49;;;;;;;16.70;14.13;;;;;;;;;;5023436;28;20213;-71
2023/05/21 02:03:16;;;;;;;17.43;15.53;;;;;;;;;;5021047;28;20170;-71
2023/05/21 02:05:43;;;;;;;18.13;16.07;;;;;;;;;;5038478;28;20267;-71
2023/05/21 02:08:10;;;;;;;18.87;16.20;;;;;;;;;;5016264;28;20202;-71
2023/05/21 02:10:36;;;;;;;17.10;15.30;;;;;;;;;;5032114;28;20739;-71
2023/05/21 02:13:02;;;;;;;19.97;15.93;;;;;;;;;;5034333;28;20185;-70
2023/05/21 02:15:29;;;;;;;17.43;15.63;;;;;;;;;;5038707;28;20592;-70
2023/05/21 02:17:55;;;;;;;19.30;15.77;;;;;;;;;;5015111;28;20216;-71
2023/05/21 02:20:21;;;;;;;16.10;14.30;;;;;;;;;;5015171;28;20198;-71
2023/05/21 02:22:49;;;;;;;17.57;15.63;;;;;;;;;;5019652;28;20193;-71
2023/05/21 02:25:15;;;;;;;17.40;15.03;;;;;;;;;;5019354;28;20174;-71
2023/05/21 02:27:43;;;;;;;15.73;14.13;;;;;;;;;;5044942;28;20220;-71
2023/05/21 02:30:10;;;;;;;17.47;15.30;;;;;;;;;;5019978;28;20743;-72
2023/05/21 02:32:38;;;;;;;16.57;14.70;;;;;;;;;;5032957;28;20186;-71
2023/05/21 02:35:04;;;;;;;17.63;15.53;;;;;;;;;;5025096;28;20244;-71
2023/05/21 02:37:32;;;;;;;18.77;15.47;;;;;;;;;;5016980;28;20202;-72
2023/05/21 02:40:00;;;;;;;19.67;16.33;;;;;;;;;;5018154;28;20205;-72
2023/05/21 02:42:26;;;;;;;17.17;15.37;;;;;;;;;;5018984;28;20248;-71
2023/05/21 02:44:53;;;;;;;18.07;16.00;;;;;;;;;;5011986;28;20184;-72
2023/05/21 02:47:22;;;;;;;16.57;14.87;;;;;;;;;;5005580;28;20252;-72
2023/05/21 02:49:49;;;;;;;16.27;14.53;;;;;;;;;;5040558;28;20185;-72
2023/05/21 02:52:20;;;;;;;18.17;16.27;;;;;;;;;;5016134;28;20594;-72
2023/05/21 02:54:47;;;;;;;19.67;15.87;;;;;;;;;;5035349;28;20208;-72
2023/05/21 02:57:13;;;;;;;18.30;15.37;;;;;;;;;;5019460;28;20512;-71
2023/05/21 02:59:39;;;;;;;17.33;15.53;;;;;;;;;;5009076;28;20197;-71
2023/05/21 03:02:06;;;;;;;15.87;14.27;;;;;;;;;;5001853;28;20171;-71
2023/05/21 03:04:37;;;;;;;17.57;15.57;;;;;;;;;;5030417;28;20182;-70
2023/05/21 03:07:04;;;;;;;19.60;16.37;;;;;;;;;;5020219;28;20212;-73
2023/05/21 03:09:30;;;;;;;17.30;15.50;;;;;;;;;;5024260;28;20186;-70
2023/05/21 03:11:57;;;;;;;19.20;16.20;;;;;;;;;;5011667;28;20214;-71
2023/05/21 03:14:23;;;;;;;19.20;16.57;;;;;;;;;;5031666;28;20264;-71
2023/05/21 03:16:50;;;;;;;19.10;15.70;;;;;;;;;;5018964;28;20202;-71
2023/05/21 03:19:17;;;;;;;21.00;16.73;;;;;;;;;;5026942;28;20194;-72
2023/05/21 03:21:43;;;;;;;18.00;16.07;;;;;;;;;;5014578;28;20665;-71
2023/05/21 03:24:12;;;;;;;17.70;15.57;;;;;;;;;;5014606;28;20183;-71
2023/05/21 03:26:38;;;;;;;20.63;15.80;;;;;;;;;;5012932;28;20209;-71
2023/05/21 03:29:04;;;;;;;17.23;15.37;;;;;;;;;;5037282;28;20186;-71
2023/05/21 03:31:32;;;;;;;19.77;15.40;;;;;;;;;;5025280;28;20183;-71
2023/05/21 03:34:07;;;;;;;19.97;16.30;;;;;;;;;;5019654;28;20175;-71
2023/05/21 03:36:33;;;;;;;19.90;15.57;;;;;;;;;;5015000;28;20209;-71
2023/05/21 03:38:59;;;;;;;19.23;15.57;;;;;;;;;;5044922;28;20173;-70
2023/05/21 03:41:26;;;;;;;19.13;15.83;;;;;;;;;;5021376;28;20210;-72
2023/05/21 03:43:58;;;;;;;19.10;15.57;;;;;;;;;;5015161;28;20209;-71
2023/05/21 03:46:29;;;;;;;19.10;16.57;;;;;;;;;;5016671;28;20202;-71
2023/05/21 03:49:17;;;;;;;18.43;16.43;;;;;;;;;;5035692;28;20190;-72
2023/05/21 03:51:44;;;;;;;18.57;15.83;;;;;;;;;;5012823;28;20577;-71
2023/05/21 03:54:14;;;;;;;18.93;16.13;;;;;;;;;;5017217;28;20753;-71
2023/05/21 03:56:41;;;;;;;18.07;14.73;;;;;;;;;;5020024;28;20291;-73
2023/05/21 03:59:08;;;;;;;18.93;15.43;;;;;;;;;;4998465;28;20193;-71
2023/05/21 04:01:35;;;;;;;18.53;16.03;;;;;;;;;;5019599;28;20185;-71
2023/05/21 04:04:02;;;;;;;20.53;16.30;;;;;;;;;;5018579;28;20196;-71
2023/05/21 04:06:29;;;;;;;20.70;16.47;;;;;;;;;;5019821;28;20298;-72
2023/05/21 04:08:55;;;;;;;20.80;16.03;;;;;;;;;;5022645;28;20269;-72
2023/05/21 04:11:21;;;;;;;18.23;16.07;;;;;;;;;;5036114;28;20553;-71
2023/05/21 04:13:47;;;;;;;20.07;15.40;;;;;;;;;;5016124;28;20220;-71
2023/05/21 04:16:17;;;;;;;19.70;15.63;;;;;;;;;;5035129;28;20187;-71
2023/05/21 04:18:45;;;;;;;19.43;16.43;;;;;;;;;;5003894;28;20224;-71
2023/05/21 04:21:11;;;;;;;22.13;15.83;;;;;;;;;;4997744;28;20684;-72
2023/05/21 04:23:37;;;;;;;18.70;16.07;;;;;;;;;;5013342;28;20202;-72
2023/05/21 04:26:11;;;;;;;19.03;15.93;;;;;;;;;;5015192;28;20203;-71
2023/05/21 04:28:40;;;;;;;19.30;16.80;;;;;;;;;;5014031;28;20206;-71
2023/05/21 04:31:08;;;;;;;19.03;16.17;;;;;;;;;;5031463;28;20186;-71
2023/05/21 04:33:34;;;;;;;20.67;16.37;;;;;;;;;;5018288;28;20194;-71
2023/05/21 04:36:02;;;;;;;18.77;15.40;;;;;;;;;;5033234;28;20182;-71
2023/05/21 04:38:29;;;;;;;19.93;17.73;;;;;;;;;;5021278;28;20714;-71
2023/05/21 04:40:57;;;;;;;18.10;15.33;;;;;;;;;;5019881;28;20218;-71
2023/05/21 04:43:27;;;;;;;19.80;16.47;;;;;;;;;;5016615;28;20186;-70
2023/05/21 04:45:55;;;;;;;19.60;15.63;;;;;;;;;;5000225;28;20202;-70
2023/05/21 04:48:23;;;;;;;19.30;16.10;;;;;;;;;;5016092;28;20198;-71
2023/05/21 04:50:49;;;;;;;17.53;15.10;;;;;;;;;;5006716;28;20213;-71
2023/05/21 04:53:16;;;;;;;16.87;15.07;;;;;;;;;;5012104;28;20755;-71
2023/05/21 04:55:42;;;;;;;18.93;14.93;;;;;;;;;;5031000;28;20662;-72
2023/05/21 04:58:11;;;;;;;17.67;15.17;;;;;;;;;;5024512;28;20268;-72
2023/05/21 05:00:38;;;;;;;19.13;15.63;;;;;;;;;;5013218;28;20264;-71
2023/05/21 05:03:05;;;;;;;17.83;15.93;;;;;;;;;;5010243;28;20182;-71
2023/05/21 05:05:31;;;;;;;16.50;14.47;;;;;;;;;;5012751;28;20215;-71
2023/05/21 05:07:57;;;;;;;16.00;14.33;;;;;;;;;;5019223;28;20206;-71
2023/05/21 05:10:23;;;;;;;17.63;15.00;;;;;;;;;;5012201;28;20183;-71
2023/05/21 05:12:52;;;;;;;17.00;15.10;;;;;;;;;;5014324;28;20641;-70
2023/05/21 05:15:18;;;;;;;17.03;14.47;;;;;;;;;;5013054;28;20190;-73
2023/05/21 05:17:46;;;;;;;15.97;14.27;;;;;;;;;;5013039;28;20256;-71
2023/05/21 05:20:13;;;;;;;19.63;15.47;;;;;;;;;;5013916;28;20946;-73
2023/05/21 05:22:39;;;;;;;17.30;14.93;;;;;;;;;;4994375;28;20186;-71
2023/05/21 05:25:05;;;;;;;17.70;15.30;;;;;;;;;;5016638;28;20201;-72
2023/05/21 05:27:31;;;;;;;20.10;15.80;;;;;;;;;;5008752;28;20225;-72
2023/05/21 05:29:58;;;;;;;19.10;16.00;;;;;;;;;;5020348;28;20182;-72
2023/05/21 05:32:24;;;;;;;16.80;14.53;;;;;;;;;;5019792;28;20231;-71
2023/05/21 05:34:50;;;;;;;18.47;15.90;;;;;;;;;;5019768;28;20194;-71
2023/05/21 05:37:16;;;;;;;17.70;15.33;;;;;;;;;;5015405;28;20635;-71
2023/05/21 05:39:43;;;;;;;21.27;16.57;;;;;;;;;;5016446;28;20294;-71
2023/05/21 05:42:09;;;;;;;22.23;15.47;;;;;;;;;;5014894;28;20231;-71
2023/05/21 05:44:35;;;;;;;16.40;14.70;;;;;;;;;;5017204;28;20182;-71
2023/05/21 05:47:01;;;;;;;16.90;14.47;;;;;;;;;;5033329;28;20190;-71
2023/05/21 05:49:27;;;;;;;16.40;14.70;;;;;;;;;;5029513;28;20233;-71
2023/05/21 05:51:55;;;;;;;19.53;14.90;;;;;;;;;;5019068;28;20186;-71
2023/05/21 05:54:21;;;;;;;17.23;15.13;;;;;;;;;;5007858;28;20274;-71
2023/05/21 05:56:47;;;;;;;18.53;14.77;;;;;;;;;;5014888;28;20715;-71
2023/05/21 05:59:14;;;;;;;19.73;15.60;;;;;;;;;;5010539;28;20549;-70
2023/05/21 06:01:46;;;;;;;19.20;15.70;;;;;;;;;;5013765;28;20321;-71
2023/05/21 06:04:12;;;;;;;16.67;14.63;;;;;;;;;;5015989;28;20186;-72
2023/05/21 06:06:38;;;;;;;19.83;15.47;;;;;;;;;;5018007;28;20226;-71
2023/05/21 06:09:04;;;;;;;18.47;15.30;;;;;;;;;;4995658;28;20265;-72
2023/05/21 06:11:30;;;;;;;17.67;15.70;;;;;;;;;;5016279;28;20209;-72
2023/05/21 06:14:00;;;;;;;18.17;15.30;;;;;;;;;;5009356;28;20217;-72
2023/05/21 06:16:26;;;;;;;17.90;15.10;;;;;;;;;;5012728;28;20207;-72
2023/05/21 06:18:52;;;;;;;16.93;15.10;;;;;;;;;;5031269;28;20186;-71
2023/05/21 06:21:19;;;;;;;17.83;15.00;;;;;;;;;;5006524;28;20244;-72
2023/05/21 06:23:46;;;;;;;16.47;14.73;;;;;;;;;;5024729;28;20186;-72
2023/05/21 06:26:12;;;;;;;18.13;15.50;;;;;;;;;;5006250;28;20583;-72
2023/05/21 06:28:39;;;;;;;18.17;15.50;;;;;;;;;;5018714;28;20193;-72
2023/05/21 06:31:07;;;;;;;17.60;15.30;;;;;;;;;;5022254;28;20712;-72
2023/05/21 06:33:35;;;;;;;18.27;15.17;;;;;;;;;;5024775;28;20197;-71
2023/05/21 06:36:02;;;;;;;16.80;14.93;;;;;;;;;;5014974;28;20709;-72
2023/05/21 06:38:28;;;;;;;18.23;15.47;;;;;;;;;;5009609;28;20202;-71
2023/05/21 06:40:54;;;;;;;17.37;15.13;;;;;;;;;;5008576;28;20210;-71
2023/05/21 06:43:41;;;;;;;17.33;15.53;;;;;;;;;;5013179;28;20163;-71
2023/05/21 06:46:25;;;;;;;18.80;15.57;;;;;;;;;;5026073;28;20677;-71
2023/05/21 06:48:51;;;;;;;17.40;15.60;;;;;;;;;;5016550;28;20192;-71
2023/05/21 06:51:18;;;;;;;15.97;14.27;;;;;;;;;;5023175;28;20191;-72
2023/05/21 06:53:44;;;;;;;17.93;16.00;;;;;;;;;;5030880;28;20189;-70
2023/05/21 06:56:10;;;;;;;17.57;15.67;;;;;;;;;;5001738;28;20260;-70
2023/05/21 06:58:40;;;;;;;16.40;14.50;;;;;;;;;;5016758;28;20214;-73
2023/05/21 07:01:06;;;;;;;17.13;14.57;;;;;;;;;;5015937;28;20206;-74
2023/05/21 07:03:32;;;;;;;18.30;15.53;;;;;;;;;;5005086;28;20191;-73
2023/05/21 07:05:58;;;;;;;16.97;15.17;;;;;;;;;;5014353;28;20654;-74
2023/05/21 07:08:25;;;;;;;17.10;15.30;;;;;;;;;;5018925;28;20646;-73
2023/05/21 07:10:51;;;;;;;16.93;15.07;;;;;;;;;;5014101;28;20266;-74
2023/05/21 07:13:17;;;;;;;16.63;14.20;;;;;;;;;;5015294;28;20190;-74
2023/05/21 07:15:44;;;;;;;15.87;14.33;;;;;;;;;;5003507;28;20186;-74
2023/05/21 07:18:10;;;;;;;16.17;14.47;;;;;;;;;;5011827;28;20210;-74
2023/05/21 07:20:38;;;;;;;15.97;14.37;;;;;;;;;;5013836;28;20590;-74
2023/05/21 07:23:05;;;;;;;17.03;13.67;;;;;;;;;;5015490;28;20183;-75
2023/05/21 07:25:31;;;;;;;17.20;14.67;;;;;;;;;;5033420;28;20182;-74
2023/05/21 07:27:58;;;;;;;17.73;14.60;;;;;;;;;;5015370;28;20198;-74
2023/05/21 07:30:24;;;;;;;15.70;14.10;;;;;;;;;;5014736;28;20189;-74
2023/05/21 07:32:51;;;;;;;15.93;14.27;;;;;;;;;;5014549;28;20667;-74
2023/05/21 07:35:18;;;;;;;16.83;15.07;;;;;;;;;;5018295;28;20682;-75
2023/05/21 07:37:45;;;;;;;15.60;14.03;;;;;;;;;;5014483;28;20211;-74
2023/05/21 07:40:11;;;;;;;15.80;14.10;;;;;;;;;;5045553;28;20209;-74
2023/05/21 07:42:38;;;;;;;15.93;14.33;;;;;;;;;;5015072;28;20265;-75
2023/05/21 07:45:05;;;;;;;16.17;14.47;;;;;;;;;;4997082;28;20183;-73
2023/05/21 07:47:36;;;;;;;16.47;14.70;;;;;;;;;;5010380;28;20211;-74
2023/05/21 07:50:03;;;;;;;15.93;14.03;;;;;;;;;;5011894;28;20688;-73
2023/05/21 07:52:30;;;;;;;15.27;13.57;;;;;;;;;;5013722;28;20289;-73
2023/05/21 07:54:56;;;;;;;16.13;14.40;;;;;;;;;;5031620;28;20182;-74
2023/05/21 07:57:23;;;;;;;16.07;14.37;;;;;;;;;;5014542;28;20289;-74
2023/05/21 07:59:59;;;;;;;15.97;14.30;;;;;;;;;;5014027;28;20210;-73
2023/05/21 08:02:25;;;;;;;15.67;14.07;;;;;;;;;;5012504;28;20179;-74
2023/05/21 08:04:53;;;;;;;15.03;13.43;;;;;;;;;;5013946;28;20182;-74
2023/05/21 08:07:20;;;;;;;15.10;13.50;;;;;;;;;;5013454;28;20580;-74
2023/05/21 08:09:47;;;;;;;15.87;13.13;;;;;;;;;;5020470;28;20558;-74
2023/05/21 08:12:14;;;;;;;17.13;14.43;;;;;;;;;;5030540;28;20260;-74
2023/05/21 08:14:44;;;;;;;15.53;13.63;;;;;;;;;;5014076;28;20216;-74
2023/05/21 08:17:12;;;;;;;14.83;13.33;;;;;;;;;;5017588;28;20756;-73
2023/05/21 08:19:39;;;;;;;16.77;14.80;;;;;;;;;;5014089;28;20214;-73
2023/05/21 08:22:05;;;;;;;15.13;13.43;;;;;;;;;;5013400;28;20183;-73
2023/05/21 08:24:33;;;;;;;15.30;13.70;;;;;;;;;;5013878;28;20272;-73
2023/05/21 08:26:59;;;;;;;15.93;14.20;;;;;;;;;;5013612;28;20210;-73
2023/05/21 08:29:25;;;;;;;15.57;13.90;;;;;;;;;;5027697;28;20214;-75
2023/05/21 08:31:53;;;;;;;14.23;12.67;;;;;;;;;;5007098;28;20182;-74
2023/05/21 08:34:19;;;;;;;17.10;14.13;;;;;;;;;;5014654;28;20170;-74
2023/05/21 08:36:53;;;;;;;15.73;14.03;;;;;;;;;;5013132;28;20203;-74
2023/05/21 08:39:39;;;;;;;14.47;13.07;;;;;;;;;;5029097;28;20202;-74
2023/05/21 08:42:26;;;;;;;14.83;13.43;;;;;;;;;;5011806;28;20271;-74
2023/05/21 08:44:54;;;;;;;14.50;12.70;;;;;;;;;;4999702;28;20194;-74
2023/05/21 08:47:23;;;;;;;16.53;14.33;;;;;;;;;;5012938;28;20217;-74
2023/05/21 08:49:50;;;;;;;15.63;14.03;;;;;;;;;;5011316;28;20191;-74
2023/05/21 08:52:17;;;;;;;15.33;13.70;;;;;;;;;;5030107;28;20224;-73
2023/05/21 08:54:45;;;;;;;14.60;13.20;;;;;;;;;;5009418;28;20224;-74
2023/05/21 08:57:12;;;;;;;15.07;13.40;;;;;;;;;;5013456;28;20256;-74
2023/05/21 08:59:42;;;;;;;16.70;13.17;;;;;;;;;;5022634;28;23169;-74
2023/05/21 09:02:13;;;;;;;15.53;13.90;;;;;;;;;;5024960;28;20190;-74
2023/05/21 09:04:39;;;;;;;15.50;13.90;;;;;;;;;;5012570;28;20240;-74
2023/05/21 09:07:06;;;;;;;15.17;13.67;;;;;;;;;;4996942;28;20555;-74
2023/05/21 09:09:55;;;;;;;14.13;12.77;;;;;;;;;;5029043;28;20179;-74
2023/05/21 09:12:21;;;;;;;15.83;13.63;;;;;;;;;;5011297;28;20210;-74
2023/05/21 09:14:49;;;;;;;16.13;13.93;;;;;;;;;;5029532;28;20221;-73
2023/05/21 09:17:19;;;;;;;14.57;13.17;;;;;;;;;;5010626;28;20230;-74
2023/05/21 09:20:15;;;;;;;14.20;12.43;;;;;;;;;;5008902;28;20537;-74
2023/05/21 09:22:54;;;;;;;15.43;13.83;;;;;;;;;;5016718;28;20230;-74
2023/05/21 09:25:22;;;;;;;14.63;13.13;;;;;;;;;;5010931;28;20178;-74
2023/05/21 09:27:49;;;;;;;14.03;12.63;;;;;;;;;;5012393;28;20198;-73
2023/05/21 09:30:16;;;;;;;14.60;13.10;;;;;;;;;;5012046;28;20244;-74
2023/05/21 09:32:43;;;;;;;13.10;11.83;;;;;;;;;;5027523;28;20650;-74
2023/05/21 09:35:10;;;;;;;13.30;12.10;;;;;;;;;;5009303;28;20328;-74
2023/05/21 09:37:37;;;;;;;14.23;12.73;;;;;;;;;;5012017;28;20210;-74
2023/05/21 09:40:10;;;;;;;14.17;12.60;;;;;;;;;;5010787;28;20203;-74
2023/05/21 09:42:38;;;;;;;13.00;11.80;;;;;;;;;;5010687;28;20182;-74
2023/05/21 09:45:05;;;;;;;12.90;11.13;;;;;;;;;;5011599;28;20174;-74
2023/05/21 09:47:31;;;;;;;14.10;11.17;;;;;;;;;;5012438;28;20249;-74
2023/05/21 09:49:58;;;;;;;11.33;10.10;;;;;;;;;;5009119;28;20188;-74
2023/05/21 09:52:24;;;;;;;12.17;10.67;;;;;;;;;;5027815;28;20355;-74
2023/05/21 09:54:52;;;;;;;10.07;9.17;;;;;;;;;;5029896;28;20184;-74
2023/05/21 09:57:25;;;;;;;11.10;10.00;;;;;;;;;;5026286;28;20210;-73
2023/05/21 09:59:51;;;;;;;10.73;9.73;;;;;;;;;;5028229;28;20607;-73
2023/05/21 10:02:21;;;;;;;10.43;9.53;;;;;;;;;;5025278;28;20184;-72
2023/05/21 10:04:48;;;;;;;10.47;9.57;;;;;;;;;;5023676;28;20191;-72
2023/05/21 10:07:18;;;;;;;11.03;9.43;;;;;;;;;;5030878;28;20206;-72
2023/05/21 10:09:47;;;;;;;10.67;9.67;;;;;;;;;;5031262;28;20198;-72
2023/05/21 10:12:16;;;;;;;11.20;10.20;;;;;;;;;;5030685;28;20192;-72
2023/05/21 10:14:43;;;;;;;10.30;9.20;;;;;;;;;;5030126;28;20193;-72
2023/05/21 10:17:09;;;;;;;10.43;9.40;;;;;;;;;;5027610;28;20799;-72
2023/05/21 10:19:36;;;;;;;10.30;9.33;;;;;;;;;;5028624;28;20217;-72
2023/05/21 10:22:03;;;;;;;10.63;9.70;;;;;;;;;;5033973;28;20178;-73
2023/05/21 10:24:29;;;;;;;10.93;9.87;;;;;;;;;;5035350;28;20598;-73
2023/05/21 10:26:55;;;;;;;11.07;9.97;;;;;;;;;;5033888;28;20221;-72
2023/05/21 10:29:22;;;;;;;10.50;9.60;;;;;;;;;;5029525;28;20210;-74
2023/05/21 10:31:49;;;;;;;10.53;9.50;;;;;;;;;;5012952;28;20234;-74
2023/05/21 10:34:15;;;;;;;12.87;9.87;;;;;;;;;;5032333;28;20178;-75
2023/05/21 10:36:43;;;;;;;11.40;10.30;;;;;;;;;;5032747;28;20227;-73
2023/05/21 10:39:12;;;;;;;11.33;10.23;;;;;;;;;;5025771;28;20682;-72
2023/05/21 10:41:46;;;;;;;11.83;10.33;;;;;;;;;;5007572;28;20603;-75
2023/05/21 10:44:19;;;;;;;10.80;9.70;;;;;;;;;;5005210;28;20177;-72
2023/05/21 10:46:58;;;;;;;11.03;10.03;;;;;;;;;;5025334;28;20279;-71
2023/05/21 10:49:33;;;;;;;11.13;9.87;;;;;;;;;;5026609;28;20183;-72
2023/05/21 10:52:06;;;;;;;10.40;9.30;;;;;;;;;;5032823;28;20891;-72
2023/05/21 10:54:41;;;;;;;10.20;9.30;;;;;;;;;;5041667;28;20200;-72
2023/05/21 10:57:33;;;;;;;11.17;10.03;;;;;;;;;;5040440;28;20244;-71
2023/05/21 11:00:00;;;;;;;10.83;9.60;;;;;;;;;;5024131;28;20988;-75
2023/05/21 11:02:26;;;;;;;11.10;10.10;;;;;;;;;;5037387;28;20270;-72
2023/05/21 11:04:59;;;;;;;11.10;9.90;;;;;;;;;;5033456;28;20174;-72
2023/05/21 11:07:44;;;;;;;10.33;9.33;;;;;;;;;;5025004;28;20194;-71
2023/05/21 11:10:30;;;;;;;11.07;9.97;;;;;;;;;;5032990;28;20710;-72
2023/05/21 11:13:23;;;;;;;11.60;9.77;;;;;;;;;;5025031;28;20198;-72
2023/05/21 11:16:03;;;;;;;10.90;9.80;;;;;;;;;;5020733;28;20191;-70
2023/05/21 11:18:30;;;;;;;10.23;9.03;;;;;;;;;;5000688;28;20224;-70
2023/05/21 11:21:06;;;;;;;10.80;9.70;;;;;;;;;;5030516;28;20297;-70
2023/05/21 11:23:48;;;;;;;10.43;9.53;;;;;;;;;;5029402;28;20635;-70
2023/05/21 11:26:17;;;;;;;11.63;9.23;;;;;;;;;;5025526;28;20240;-70
2023/05/21 11:28:43;;;;;;;10.70;9.60;;;;;;;;;;5030178;28;20236;-70
2023/05/21 11:31:25;;;;;;;10.63;9.63;;;;;;;;;;5028006;28;20213;-71
2023/05/21 11:34:10;;;;;;;10.50;9.43;;;;;;;;;;5030504;28;20526;-71
2023/05/21 11:36:37;;;;;;;10.40;9.50;;;;;;;;;;5041898;28;20259;-70
2023/05/21 11:39:23;;;;;;;10.40;9.37;;;;;;;;;;5014142;28;20673;-70
2023/05/21 11:41:50;;;;;;;10.73;9.67;;;;;;;;;;5029649;28;20187;-70
2023/05/21 11:44:16;;;;;;;10.30;9.40;;;;;;;;;;5027285;28;20266;-71
2023/05/21 11:46:43;;;;;;;10.00;9.10;;;;;;;;;;5028666;28;20253;-73
2023/05/21 11:49:09;;;;;;;10.07;9.20;;;;;;;;;;5012971;28;20238;-72
2023/05/21 11:51:35;;;;;;;9.37;8.43;;;;;;;;;;5023506;28;20281;-72
2023/05/21 11:54:02;;;;;;;8.37;7.50;;;;;;;;;;5030635;28;20288;-73
2023/05/21 11:56:30;;;;;;;9.10;8.13;;;;;;;;;;5036463;28;20205;-72
2023/05/21 11:58:57;;;;;;;9.10;8.30;;;;;;;;;;5023916;28;20188;-74
2023/05/21 12:01:23;;;;;;;8.30;7.50;;;;;;;;;;5029010;28;20670;-73
2023/05/21 12:03:49;;;;;;;8.80;7.90;;;;;;;;;;5024485;28;20327;-75
2023/05/21 12:06:19;;;;;;;8.80;7.90;;;;;;;;;;5027994;28;20218;-75
2023/05/21 12:08:51;;;;;;;7.60;6.87;;;;;;;;;;5032286;28;20242;-77
2023/05/21 12:11:17;;;;;;;8.57;7.77;;;;;;;;;;5027185;28;20187;-76
2023/05/21 12:13:43;;;;;;;8.60;7.80;;;;;;;;;;5026411;28;20240;-76
2023/05/21 12:16:09;;;;;;;8.27;7.47;;;;;;;;;;5015423;28;20179;-76
2023/05/21 12:18:36;;;;;;;8.40;7.60;;;;;;;;;;5030459;28;20187;-76
2023/05/21 12:21:02;;;;;;;8.30;7.50;;;;;;;;;;5029339;28;20834;-75
2023/05/21 12:23:30;;;;;;;8.83;7.97;;;;;;;;;;5033055;28;20183;-76
2023/05/21 12:25:56;;;;;;;8.53;7.63;;;;;;;;;;5031257;28;20575;-79
2023/05/21 12:28:23;;;;;;;7.97;7.30;;;;;;;;;;5011930;28;20724;-77
2023/05/21 12:30:49;;;;;;;8.63;7.83;;;;;;;;;;5033500;28;20272;-76
2023/05/21 12:33:16;;;;;;;8.40;7.70;;;;;;;;;;5011488;28;20200;-77
2023/05/21 12:35:48;;;;;;;8.40;7.63;;;;;;;;;;5014447;28;20187;-76
2023/05/21 12:38:15;;;;;;;8.13;7.33;;;;;;;;;;5031172;28;20229;-76
2023/05/21 12:40:43;;;;;;;9.07;8.17;;;;;;;;;;5030734;28;20231;-76
2023/05/21 12:43:09;;;;;;;8.37;7.67;;;;;;;;;;5025725;28;20182;-77
2023/05/21 12:45:38;;;;;;;8.90;8.10;;;;;;;;;;5026964;28;20190;-76
2023/05/21 12:48:04;;;;;;;8.13;7.33;;;;;;;;;;5008574;28;20626;-76
2023/05/21 12:50:32;;;;;;;8.30;7.50;;;;;;;;;;5022692;28;20201;-76
2023/05/21 12:52:58;;;;;;;8.87;7.97;;;;;;;;;;5024530;28;20183;-78
2023/05/21 12:55:25;;;;;;;8.87;7.90;;;;;;;;;;5026630;28;20339;-78
2023/05/21 12:58:03;;;;;;;8.43;7.73;;;;;;;;;;5024867;28;20210;-76
2023/05/21 13:00:29;;;;;;;8.40;7.60;;;;;;;;;;5026047;28;20242;-76
2023/05/21 13:02:58;;;;;;;8.77;7.90;;;;;;;;;;5025347;28;20208;-76
2023/05/21 13:05:24;;;;;;;8.37;7.57;;;;;;;;;;5026861;28;20336;-76
2023/05/21 13:07:51;;;;;;;8.43;7.73;;;;;;;;;;5024630;28;20209;-78
2023/05/21 13:10:17;;;;;;;7.83;7.13;;;;;;;;;;5007015;28;20185;-77
2023/05/21 13:12:44;;;;;;;8.17;7.43;;;;;;;;;;5021062;28;20265;-77
2023/05/21 13:15:10;;;;;;;7.73;7.13;;;;;;;;;;5022614;28;20188;-76
2023/05/21 13:17:37;;;;;;;7.47;6.77;;;;;;;;;;5022531;28;20237;-78
2023/05/21 13:20:06;;;;;;;7.70;7.00;;;;;;;;;;5008689;28;20212;-76
2023/05/21 13:22:32;;;;;;;7.20;6.60;;;;;;;;;;5025818;28;20272;-76
2023/05/21 13:24:58;;;;;;;8.73;6.73;;;;;;;;;;5026191;28;20221;-77
2023/05/21 13:27:24;;;;;;;6.70;6.17;;;;;;;;;;5023958;28;20230;-76
2023/05/21 13:29:51;;;;;;;6.70;6.10;;;;;;;;;;5025066;28;20188;-76
2023/05/21 13:32:17;;;;;;;6.67;6.17;;;;;;;;;;5020882;28;21030;-76
2023/05/21 13:34:44;;;;;;;6.73;6.23;;;;;;;;;;5021989;28;20222;-77
2023/05/21 13:37:10;;;;;;;6.47;5.83;;;;;;;;;;5024079;28;20217;-77
2023/05/21 13:39:37;;;;;;;6.53;6.03;;;;;;;;;;5024708;28;20251;-77
2023/05/21 13:42:04;;;;;;;6.60;6.03;;;;;;;;;;5021292;28;21188;-77
2023/05/21 13:44:34;;;;;;;6.50;5.83;;;;;;;;;;5025053;28;20237;-77
2023/05/21 13:47:09;;;;;;;6.20;5.70;;;;;;;;;;5006863;28;20210;-77
2023/05/21 13:49:35;;;;;;;6.70;6.10;;;;;;;;;;5009824;28;20178;-79
2023/05/21 13:52:02;;;;;;;6.50;5.90;;;;;;;;;;5018011;28;20264;-77
2023/05/21 13:54:29;;;;;;;6.70;6.20;;;;;;;;;;5022315;28;20216;-77
2023/05/21 13:56:55;;;;;;;7.23;6.63;;;;;;;;;;5021258;28;20286;-77
2023/05/21 13:59:21;;;;;;;7.23;6.63;;;;;;;;;;5003394;28;20179;-77
2023/05/21 14:01:48;;;;;;;7.37;6.67;;;;;;;;;;5019136;28;20203;-76
2023/05/21 14:04:16;;;;;;;7.53;6.80;;;;;;;;;;5016501;28;20189;-76
2023/05/21 14:06:42;;;;;;;6.63;5.93;;;;;;;;;;5023289;28;20216;-77
2023/05/21 14:09:09;;;;;;;6.90;6.20;;;;;;;;;;5022980;28;20276;-77
2023/05/21 14:11:35;;;;;;;7.70;6.80;;;;;;;;;;5026144;28;20215;-78
2023/05/21 14:14:01;;;;;;;6.23;5.70;;;;;;;;;;5025158;28;20189;-77
2023/05/21 14:16:28;;;;;;;6.17;5.67;;;;;;;;;;5025021;28;20282;-77
2023/05/21 14:18:55;;;;;;;7.20;6.33;;;;;;;;;;5023554;28;20280;-78
2023/05/21 14:21:21;;;;;;;7.07;6.47;;;;;;;;;;5027538;28;20623;-76
2023/05/21 14:23:47;;;;;;;6.60;6.00;;;;;;;;;;5009944;28;20183;-77
2023/05/21 14:26:14;;;;;;;7.13;6.53;;;;;;;;;;5025671;28;20834;-77
2023/05/21 14:28:41;;;;;;;6.23;5.73;;;;;;;;;;5005765;28;20184;-77
2023/05/21 14:31:07;;;;;;;6.57;6.07;;;;;;;;;;5020331;28;20234;-77